Time;durP1;ratioP1;P1;durP2;ratioP2;P2;SDS_P1;SDS_P2;PMS_P1;PMS_P2;Temp;Humidity;BMP_temperature;BMP_pressure;BME280_temperature;BME280_humidity;BME280_pressure;Samples;Min_cycle;Max_cycle;Signal;HPM_P1;HPM_P2
2023/01/14 00:00:53;;;;;;;6.45;1.40;;;8.90;91.40;;;;;;5031913;28;20171;-67
2023/01/14 00:03:18;;;;;;;3.40;1.00;;;8.90;91.40;;;;;;5035076;28;20551;-67
2023/01/14 00:05:56;;;;;;;4.28;0.95;;;9.00;91.60;;;;;;5032054;28;20033;-68
2023/01/14 00:08:22;;;;;;;3.90;1.35;;;8.90;91.30;;;;;;5029884;28;20551;-68
2023/01/14 00:10:47;;;;;;;4.93;1.10;;;8.90;91.30;;;;;;5031479;28;20152;-67
2023/01/14 00:13:13;;;;;;;5.57;1.10;;;8.90;91.30;;;;;;5030036;28;20022;-68
2023/01/14 00:15:38;;;;;;;4.82;1.02;;;8.90;91.40;;;;;;5030857;28;20499;-68
2023/01/14 00:18:04;;;;;;;4.00;1.08;;;8.90;91.40;;;;;;5031921;28;20033;-67
2023/01/14 00:20:30;;;;;;;5.20;1.20;;;8.80;91.40;;;;;;5031738;28;20087;-67
2023/01/14 00:22:56;;;;;;;1.60;1.10;;;8.80;91.40;;;;;;5031044;28;20545;-67
2023/01/14 00:25:22;;;;;;;5.75;1.30;;;8.70;91.50;;;;;;5030996;28;20030;-66
2023/01/14 00:27:47;;;;;;;9.25;1.85;;;8.70;91.40;;;;;;5031383;28;20037;-67
2023/01/14 00:30:13;;;;;;;9.30;1.95;;;8.70;91.50;;;;;;5031297;28;20116;-68
2023/01/14 00:32:38;;;;;;;5.50;1.35;;;8.60;91.50;;;;;;5031217;28;20044;-67
2023/01/14 00:35:04;;;;;;;1.77;1.05;;;8.60;91.60;;;;;;5031479;28;20028;-67
2023/01/14 00:37:30;;;;;;;5.03;1.17;;;8.60;91.70;;;;;;5031233;28;20014;-66
2023/01/14 00:39:55;;;;;;;2.08;1.35;;;8.50;91.70;;;;;;5031289;28;20647;-67
2023/01/14 00:42:21;;;;;;;4.95;1.17;;;8.50;91.80;;;;;;5031798;28;20463;-66
2023/01/14 00:44:46;;;;;;;4.65;1.45;;;8.50;91.90;;;;;;5030909;28;20492;-67
2023/01/14 00:47:12;;;;;;;3.45;0.90;;;8.40;91.80;;;;;;5031679;28;20022;-66
2023/01/14 00:49:38;;;;;;;4.88;1.20;;;8.40;91.90;;;;;;5031164;28;20013;-67
2023/01/14 00:52:04;;;;;;;2.95;1.38;;;8.40;91.90;;;;;;5031371;28;20045;-66
2023/01/14 00:54:29;;;;;;;3.70;1.52;;;8.40;92.00;;;;;;5030867;28;20423;-66
2023/01/14 00:56:56;;;;;;;9.13;1.73;;;8.40;92.00;;;;;;5031252;28;20063;-66
2023/01/14 00:59:23;;;;;;;5.10;1.20;;;8.30;92.00;;;;;;5031010;28;20383;-67
2023/01/14 01:01:51;;;;;;;8.32;2.28;;;8.30;92.00;;;;;;5031407;28;20036;-67
2023/01/14 01:04:17;;;;;;;3.63;1.73;;;8.30;92.00;;;;;;5030734;28;20025;-66
2023/01/14 01:06:43;;;;;;;9.25;1.52;;;8.30;92.00;;;;;;5031179;28;20451;-67
2023/01/14 01:09:08;;;;;;;4.32;1.40;;;8.30;92.00;;;;;;5030747;28;20447;-66
2023/01/14 01:11:34;;;;;;;3.47;1.23;;;8.30;92.10;;;;;;5030807;28;20040;-67
2023/01/14 01:14:00;;;;;;;5.55;1.10;;;8.30;92.10;;;;;;5030638;28;20028;-68
2023/01/14 01:16:25;;;;;;;4.10;1.30;;;8.30;92.10;;;;;;5030451;28;20112;-67
2023/01/14 01:18:53;;;;;;;3.53;1.33;;;8.30;92.10;;;;;;5030890;28;20026;-66
2023/01/14 01:21:19;;;;;;;4.80;1.70;;;8.30;92.10;;;;;;5030559;28;20092;-67
2023/01/14 01:23:46;;;;;;;10.10;1.55;;;8.30;92.10;;;;;;5030634;28;20044;-67
2023/01/14 01:26:17;;;;;;;3.05;1.50;;;8.30;92.10;;;;;;5030512;28;20056;-66
2023/01/14 01:28:46;;;;;;;6.22;1.33;;;8.30;92.20;;;;;;5030044;28;20116;-68
2023/01/14 01:31:12;;;;;;;9.50;1.67;;;8.30;92.20;;;;;;5030421;28;20392;-67
2023/01/14 01:33:38;;;;;;;5.90;1.70;;;8.30;92.20;;;;;;5029996;28;20132;-65
2023/01/14 01:36:07;;;;;;;9.10;2.13;;;8.30;92.20;;;;;;5030491;28;20647;-67
2023/01/14 01:38:32;;;;;;;4.22;1.40;;;8.30;92.20;;;;;;5030809;28;20029;-65
2023/01/14 01:40:59;;;;;;;8.07;1.30;;;8.30;92.20;;;;;;5030010;28;20022;-67
2023/01/14 01:43:29;;;;;;;4.30;1.35;;;8.20;92.30;;;;;;5030343;28;20098;-66
2023/01/14 01:45:56;;;;;;;9.90;2.35;;;8.20;92.30;;;;;;5030330;28;20435;-65
2023/01/14 01:48:30;;;;;;;5.30;1.45;;;8.10;92.30;;;;;;5029250;28;20029;-66
2023/01/14 01:51:19;;;;;;;3.92;1.08;;;8.10;92.40;;;;;;5029898;28;20031;-65
2023/01/14 01:53:48;;;;;;;6.90;1.40;;;8.10;92.40;;;;;;5030334;28;20025;-65
2023/01/14 01:56:19;;;;;;;12.82;1.60;;;8.10;92.40;;;;;;5029936;28;20037;-65
2023/01/14 01:58:44;;;;;;;8.48;1.70;;;8.00;92.30;;;;;;5030226;28;20021;-65
2023/01/14 02:01:13;;;;;;;5.68;1.52;;;8.00;92.40;;;;;;5029954;28;20037;-67
2023/01/14 02:03:41;;;;;;;16.75;2.00;;;8.00;92.40;;;;;;5030343;28;20523;-66
2023/01/14 02:06:08;;;;;;;4.75;1.40;;;8.00;92.50;;;;;;5029697;28;20018;-66
2023/01/14 02:08:36;;;;;;;6.97;1.15;;;7.90;92.40;;;;;;5030077;28;20057;-66
2023/01/14 02:11:19;;;;;;;7.45;1.98;;;7.90;92.40;;;;;;5029628;28;20036;-67
2023/01/14 02:14:06;;;;;;;4.63;1.10;;;7.90;92.70;;;;;;5029535;28;20034;-67
2023/01/14 02:16:44;;;;;;;8.10;1.70;;;7.90;92.40;;;;;;5029190;28;20036;-67
2023/01/14 02:19:28;;;;;;;6.03;1.30;;;7.80;92.40;;;;;;5029619;28;20514;-66
2023/01/14 02:22:42;;;;;;;6.68;1.45;;;7.80;92.50;;;;;;5023430;28;20033;-67
2023/01/14 02:25:26;;;;;;;8.00;1.58;;;7.80;92.50;;;;;;4998728;28;20629;-66
2023/01/14 02:28:04;;;;;;;5.13;1.77;;;7.80;92.40;;;;;;5029949;28;20164;-67
2023/01/14 02:31:04;;;;;;;6.22;1.40;;;7.70;92.40;;;;;;5028571;28;20025;-67
2023/01/14 02:33:51;;;;;;;8.27;1.60;;;7.70;92.40;;;;;;5029894;28;20075;-66
2023/01/14 02:36:47;;;;;;;6.53;1.40;;;7.80;92.40;;;;;;5029410;28;20083;-67
2023/01/14 02:39:40;;;;;;;5.20;1.80;;;7.70;92.40;;;;;;5026971;28;20112;-66
2023/01/14 02:45:16;;;;;;;5.88;1.60;;;7.60;92.30;;;;;;5030069;28;20063;-67
2023/01/14 02:47:44;;;;;;;9.65;1.90;;;7.50;92.40;;;;;;5029769;28;20034;-69
2023/01/14 02:50:12;;;;;;;3.05;1.30;;;7.50;92.40;;;;;;5010328;28;20095;-66
2023/01/14 02:52:37;;;;;;;6.15;2.25;;;7.50;92.40;;;;;;5027623;28;20546;-66
2023/01/14 02:55:23;;;;;;;6.55;1.58;;;7.50;92.40;;;;;;5033367;28;20022;-65
2023/01/14 02:57:57;;;;;;;11.02;2.25;;;7.50;92.40;;;;;;5033141;28;20033;-67
2023/01/14 03:00:25;;;;;;;5.32;1.50;;;7.40;92.40;;;;;;5033514;28;20151;-66
2023/01/14 03:03:19;;;;;;;10.85;1.83;;;7.40;92.40;;;;;;5031765;28;20029;-66
2023/01/14 03:06:03;;;;;;;5.13;1.73;;;7.40;92.50;;;;;;5033168;28;20038;-65
2023/01/14 03:08:50;;;;;;;9.70;2.03;;;7.40;92.50;;;;;;5023333;28;20034;-68
2023/01/14 03:11:16;;;;;;;11.35;2.65;;;7.40;92.50;;;;;;5033204;28;20377;-66
2023/01/14 03:14:02;;;;;;;7.53;1.80;;;7.30;92.40;;;;;;5032990;28;20029;-67
2023/01/14 03:16:32;;;;;;;2.33;1.50;;;7.30;92.50;;;;;;5031839;28;20029;-66
2023/01/14 03:19:07;;;;;;;8.32;2.42;;;7.30;92.50;;;;;;5031275;28;20029;-67
2023/01/14 03:21:40;;;;;;;7.47;1.33;;;7.20;92.50;;;;;;5032983;28;20025;-66
2023/01/14 03:24:14;;;;;;;13.75;2.42;;;7.30;92.60;;;;;;5032748;28;20029;-67
2023/01/14 03:26:43;;;;;;;17.02;2.17;;;7.20;92.60;;;;;;5033148;28;20439;-66
2023/01/14 03:29:15;;;;;;;15.90;2.67;;;7.20;92.60;;;;;;5032765;28;20125;-65
2023/01/14 03:31:51;;;;;;;11.65;2.10;;;7.20;92.60;;;;;;5032624;28;20057;-66
2023/01/14 03:34:24;;;;;;;13.40;2.30;;;7.10;92.60;;;;;;5031621;28;20026;-65
2023/01/14 03:36:51;;;;;;;5.63;2.08;;;7.20;92.70;;;;;;5032841;28;20014;-66
2023/01/14 03:39:23;;;;;;;10.52;1.85;;;7.10;92.70;;;;;;5032724;28;20025;-65
2023/01/14 03:45:01;;;;;;;13.98;2.58;;;7.10;92.70;;;;;;5027942;28;20048;-65
2023/01/14 03:47:29;;;;;;;9.93;2.08;;;7.10;92.70;;;;;;5032302;28;20192;-68
2023/01/14 03:49:57;;;;;;;16.73;2.60;;;7.10;92.70;;;;;;5031133;28;20456;-68
2023/01/14 03:52:59;;;;;;;12.60;2.53;;;7.10;92.70;;;;;;5031910;28;20133;-67
2023/01/14 03:55:42;;;;;;;9.15;2.20;;;7.10;92.70;;;;;;5032165;28;20034;-66
2023/01/14 03:58:17;;;;;;;;;;;7.10;92.70;;;;;;5032595;28;20065;-65
2023/01/14 04:01:07;;;;;;;11.43;2.25;;;7.10;92.70;;;;;;5012616;28;19960;-66
2023/01/14 04:03:34;;;;;;;9.52;2.05;;;7.00;92.80;;;;;;5024350;28;20511;-66
2023/01/14 04:06:00;;;;;;;9.88;2.10;;;7.00;92.80;;;;;;5031866;28;20480;-67
2023/01/14 04:08:26;;;;;;;12.00;2.47;;;7.00;92.80;;;;;;5030496;28;20025;-67
2023/01/14 04:10:52;;;;;;;19.45;3.33;;;7.00;92.90;;;;;;5032014;28;20033;-67
2023/01/14 04:16:03;;;;;;;12.80;2.60;;;7.00;93.20;;;;;;5014106;28;20424;-66
2023/01/14 04:18:28;;;;;;;14.27;2.17;;;7.00;92.90;;;;;;5030359;28;20056;-66
2023/01/14 04:20:54;;;;;;;14.50;2.67;;;7.10;93.00;;;;;;5031856;28;20045;-67
2023/01/14 04:23:20;;;;;;;13.60;2.08;;;7.00;92.90;;;;;;5031814;28;20040;-66
2023/01/14 04:25:46;;;;;;;8.85;2.63;;;7.10;93.00;;;;;;5031654;28;20400;-67
2023/01/14 04:28:11;;;;;;;4.63;2.00;;;7.10;93.00;;;;;;5031668;28;20041;-66
2023/01/14 04:30:37;;;;;;;16.02;2.30;;;7.20;93.00;;;;;;5031141;28;20031;-66
2023/01/14 04:33:03;;;;;;;14.05;2.42;;;7.20;93.00;;;;;;5031685;28;20105;-67
2023/01/14 04:35:29;;;;;;;10.57;1.90;;;7.20;93.00;;;;;;5031531;28;20029;-66
2023/01/14 04:37:54;;;;;;;12.85;2.33;;;7.20;93.00;;;;;;5031496;28;20022;-65
2023/01/14 04:40:23;;;;;;;16.33;2.80;;;7.20;92.90;;;;;;5031470;28;20029;-66
2023/01/14 04:42:50;;;;;;;12.38;2.05;;;7.30;93.00;;;;;;5030865;28;20086;-66
2023/01/14 04:45:16;;;;;;;9.90;1.67;;;7.20;92.90;;;;;;5031513;28;20040;-67
2023/01/14 04:47:42;;;;;;;8.07;1.77;;;7.30;93.00;;;;;;5030978;28;20025;-66
2023/01/14 04:52:53;;;;;;;11.43;1.77;;;7.30;92.90;;;;;;5030870;28;20400;-66
2023/01/14 04:55:19;;;;;;;14.27;2.55;;;7.40;93.00;;;;;;5031177;28;20021;-67
2023/01/14 04:57:45;;;;;;;9.23;2.30;;;7.30;92.90;;;;;;5031165;28;20502;-65
2023/01/14 05:00:11;;;;;;;13.63;1.70;;;7.30;93.00;;;;;;5030873;28;20018;-66
2023/01/14 05:02:37;;;;;;;15.98;2.72;;;7.30;93.00;;;;;;5030996;28;20056;-66
2023/01/14 05:05:03;;;;;;;17.95;1.88;;;7.30;93.10;;;;;;5029579;28;20112;-66
2023/01/14 05:07:28;;;;;;;12.63;1.98;;;7.30;93.10;;;;;;5031019;28;20156;-66
2023/01/14 05:09:54;;;;;;;10.75;1.70;;;7.30;93.10;;;;;;5029663;28;20021;-65
2023/01/14 05:12:19;;;;;;;12.93;2.30;;;7.30;93.10;;;;;;5030619;28;20040;-66
2023/01/14 05:14:45;;;;;;;8.15;2.08;;;7.30;93.10;;;;;;5029967;28;20112;-66
2023/01/14 05:17:10;;;;;;;12.68;2.05;;;7.30;93.20;;;;;;5030620;28;20022;-68
2023/01/14 05:19:36;;;;;;;10.63;1.90;;;7.30;93.10;;;;;;5031035;28;20026;-65
2023/01/14 05:22:01;;;;;;;5.82;1.70;;;7.30;93.10;;;;;;5030271;28;20079;-67
2023/01/14 05:24:27;;;;;;;12.77;3.10;;;7.30;93.20;;;;;;5030828;28;20025;-67
2023/01/14 05:26:53;;;;;;;5.45;1.42;;;7.40;93.20;;;;;;5030598;28;20116;-66
2023/01/14 05:29:18;;;;;;;15.05;2.40;;;7.40;93.50;;;;;;5030140;28;20492;-66
2023/01/14 05:31:46;;;;;;;10.52;2.30;;;7.30;93.10;;;;;;5030652;28;20033;-67
2023/01/14 05:34:12;;;;;;;12.23;2.88;;;7.30;93.20;;;;;;5030898;28;20504;-67
2023/01/14 05:36:37;;;;;;;14.55;3.15;;;7.40;93.20;;;;;;5028696;28;20041;-67
2023/01/14 05:39:03;;;;;;;11.35;1.80;;;7.30;93.20;;;;;;5030907;28;20022;-67
2023/01/14 05:41:28;;;;;;;12.27;2.38;;;7.40;93.30;;;;;;5030664;28;20061;-67
2023/01/14 05:46:38;;;;;;;12.18;2.15;;;7.40;93.30;;;;;;5030437;28;20066;-66
2023/01/14 05:49:03;;;;;;;10.50;1.95;;;7.30;93.30;;;;;;5030308;28;20108;-64
2023/01/14 05:51:29;;;;;;;9.90;2.13;;;7.30;93.30;;;;;;5029149;28;20056;-65
2023/01/14 05:53:54;;;;;;;7.70;1.90;;;7.30;93.40;;;;;;5028874;28;20025;-65
2023/01/14 05:56:20;;;;;;;19.27;2.38;;;7.30;93.40;;;;;;5029889;28;20022;-65
2023/01/14 05:58:45;;;;;;;11.30;2.10;;;7.30;93.40;;;;;;5029587;28;20680;-65
2023/01/14 06:06:49;;;;;;;14.50;2.63;;;7.30;93.50;;;;;;5026881;28;20044;-66
2023/01/14 06:09:16;;;;;;;17.98;2.75;;;7.30;93.50;;;;;;5029638;28;20115;-65
2023/01/14 06:12:02;;;;;;;9.63;1.90;;;7.30;93.50;;;;;;5029117;28;20033;-66
2023/01/14 06:14:31;;;;;;;9.50;1.85;;;7.30;93.50;;;;;;5029416;28;20097;-66
2023/01/14 06:16:57;;;;;;;12.45;2.50;;;7.30;93.50;;;;;;5029665;28;20079;-66
2023/01/14 06:19:24;;;;;;;5.93;1.52;;;7.30;93.50;;;;;;5029347;28;20051;-66
2023/01/14 06:21:50;;;;;;;17.60;2.22;;;7.30;93.50;;;;;;5027526;28;20480;-66
2023/01/14 06:24:16;;;;;;;17.50;2.10;;;7.40;93.50;;;;;;5032053;28;20394;-65
2023/01/14 06:26:42;;;;;;;10.65;1.88;;;7.40;93.40;;;;;;5034908;28;20029;-65
2023/01/14 06:29:10;;;;;;;13.02;2.00;;;7.40;93.40;;;;;;5029847;28;20044;-66
2023/01/14 06:31:37;;;;;;;9.15;1.88;;;7.40;93.40;;;;;;5032615;28;20108;-66
2023/01/14 06:34:04;;;;;;;10.98;2.38;;;7.40;93.30;;;;;;5037885;28;20100;-66
2023/01/14 06:36:31;;;;;;;6.75;1.60;;;7.40;93.30;;;;;;5040409;28;20073;-66
2023/01/14 06:38:57;;;;;;;5.90;1.90;;;7.50;93.30;;;;;;5047227;28;20021;-66
2023/01/14 06:41:23;;;;;;;6.63;1.48;;;7.50;93.30;;;;;;5041268;28;20141;-66
2023/01/14 06:43:48;;;;;;;9.32;1.60;;;7.50;93.20;;;;;;5039940;28;20507;-66
2023/01/14 06:46:15;;;;;;;7.97;1.83;;;7.50;93.20;;;;;;5031139;28;20475;-66
2023/01/14 06:48:42;;;;;;;11.38;2.47;;;7.50;93.20;;;;;;5032912;28;20029;-66
2023/01/14 06:51:15;;;;;;;7.65;2.10;;;7.50;93.10;;;;;;5032439;28;20022;-66
2023/01/14 06:53:41;;;;;;;13.52;2.03;;;7.50;93.10;;;;;;5039058;28;20032;-66
2023/01/14 06:56:17;;;;;;;9.57;2.55;;;7.60;93.10;;;;;;5033324;28;20026;-66
2023/01/14 06:58:46;;;;;;;7.75;1.33;;;7.60;93.10;;;;;;5034802;28;20029;-66
2023/01/14 07:01:11;;;;;;;8.80;1.55;;;7.60;93.00;;;;;;5032372;28;20024;-66
2023/01/14 07:03:38;;;;;;;11.07;1.45;;;7.60;93.00;;;;;;5032276;28;20025;-66
2023/01/14 07:06:04;;;;;;;7.40;1.58;;;7.70;92.90;;;;;;5031535;28;20035;-66
2023/01/14 07:08:29;;;;;;;10.98;1.90;;;7.70;93.10;;;;;;5032993;28;20383;-66
2023/01/14 07:10:55;;;;;;;8.00;1.58;;;7.70;92.80;;;;;;5033352;28;20052;-67
2023/01/14 07:13:21;;;;;;;11.73;2.13;;;7.70;92.80;;;;;;5034665;28;20053;-67
2023/01/14 07:15:47;;;;;;;7.40;1.75;;;7.70;92.80;;;;;;5032743;28;20105;-67
2023/01/14 07:18:13;;;;;;;11.43;2.20;;;7.70;92.80;;;;;;5031782;28;20052;-67
2023/01/14 07:20:39;;;;;;;14.68;2.10;;;7.70;92.80;;;;;;5033221;28;20026;-67
2023/01/14 07:23:05;;;;;;;17.23;2.30;;;7.70;92.80;;;;;;5033218;28;20068;-67
2023/01/14 07:25:31;;;;;;;15.32;2.00;;;7.70;92.90;;;;;;5032304;28;20060;-67
2023/01/14 07:27:56;;;;;;;12.70;2.05;;;7.70;93.00;;;;;;5032702;28;20037;-66
2023/01/14 07:30:22;;;;;;;13.18;3.03;;;7.60;93.00;;;;;;5035237;28;20090;-67
2023/01/14 07:32:48;;;;;;;5.75;1.48;;;7.60;93.10;;;;;;5047431;28;20033;-66
2023/01/14 07:35:13;;;;;;;6.38;1.50;;;7.60;93.10;;;;;;5032817;28;20056;-66
2023/01/14 07:37:39;;;;;;;5.18;1.50;;;7.60;93.30;;;;;;5030714;28;20025;-66
2023/01/14 07:40:05;;;;;;;5.43;1.45;;;7.60;93.40;;;;;;5032965;28;20134;-67
2023/01/14 07:42:31;;;;;;;7.22;2.00;;;7.60;93.40;;;;;;5033021;28;20025;-67
2023/01/14 07:44:56;;;;;;;7.32;1.55;;;7.60;93.40;;;;;;5029953;28;20072;-67
2023/01/14 07:47:22;;;;;;;5.70;1.80;;;7.60;93.50;;;;;;5032884;28;20063;-67
2023/01/14 07:49:47;;;;;;;8.43;1.77;;;7.60;93.50;;;;;;5031547;28;20104;-67
2023/01/14 07:52:13;;;;;;;6.95;1.67;;;7.60;93.60;;;;;;5047977;28;20087;-67
2023/01/14 07:54:42;;;;;;;4.57;1.50;;;7.60;93.70;;;;;;5034267;28;20510;-67
2023/01/14 07:57:10;;;;;;;6.95;2.38;;;7.60;93.70;;;;;;5044759;28;20041;-67
2023/01/14 07:59:36;;;;;;;9.77;2.10;;;7.60;93.80;;;;;;5031774;28;20029;-67
2023/01/14 08:02:02;;;;;;;7.97;1.65;;;7.60;93.90;;;;;;5032478;28;20043;-67
2023/01/14 08:04:28;;;;;;;8.02;1.77;;;7.60;93.90;;;;;;5032867;28;20025;-67
2023/01/14 08:06:56;;;;;;;8.88;1.92;;;7.60;94.00;;;;;;5032234;28;20080;-67
2023/01/14 08:09:22;;;;;;;6.88;1.60;;;7.60;94.20;;;;;;5032084;28;20044;-67
2023/01/14 08:11:48;;;;;;;7.03;1.92;;;7.60;94.30;;;;;;5037038;28;20037;-68
2023/01/14 08:14:13;;;;;;;7.47;2.03;;;7.60;94.30;;;;;;5031943;28;20078;-68
2023/01/14 08:16:39;;;;;;;6.00;1.70;;;7.60;94.40;;;;;;5028289;28;20473;-68
2023/01/14 08:19:05;;;;;;;6.35;1.63;;;7.60;94.60;;;;;;5027810;28;20144;-68
2023/01/14 08:21:30;;;;;;;9.02;2.60;;;7.70;94.60;;;;;;5032688;28;20104;-66
2023/01/14 08:23:56;;;;;;;2.70;1.40;;;7.60;94.70;;;;;;5032352;28;20033;-66
2023/01/14 08:26:21;;;;;;;3.58;1.40;;;7.70;94.80;;;;;;5030302;28;20182;-66
2023/01/14 08:28:47;;;;;;;8.05;2.03;;;7.70;94.80;;;;;;5031619;28;20029;-65
2023/01/14 08:31:16;;;;;;;4.57;1.50;;;7.70;94.90;;;;;;5031678;28;20022;-66
2023/01/14 08:33:43;;;;;;;8.90;1.98;;;7.70;95.00;;;;;;5029229;28;20035;-66
2023/01/14 08:36:17;;;;;;;5.82;1.90;;;7.70;95.10;;;;;;5033618;28;20470;-66
2023/01/14 08:38:45;;;;;;;8.95;2.05;;;7.70;95.20;;;;;;5035341;28;20760;-66
2023/01/14 08:41:13;;;;;;;7.75;2.47;;;7.80;95.20;;;;;;5031443;28;20110;-66
2023/01/14 08:43:40;;;;;;;3.92;2.05;;;7.80;95.30;;;;;;5049570;28;20410;-67
2023/01/14 08:46:07;;;;;;;5.13;1.95;;;7.80;95.30;;;;;;5024428;28;20030;-67
2023/01/14 08:48:33;;;;;;;7.15;1.85;;;7.80;95.50;;;;;;5040642;28;20025;-67
2023/01/14 08:51:04;;;;;;;5.70;1.60;;;7.80;95.60;;;;;;5027640;28;20029;-67
2023/01/14 08:53:31;;;;;;;6.50;2.42;;;7.80;95.60;;;;;;5029252;28;20028;-67
2023/01/14 08:56:00;;;;;;;6.32;1.88;;;7.80;95.60;;;;;;5027351;28;20025;-67
2023/01/14 08:58:26;;;;;;;4.35;1.25;;;7.90;95.70;;;;;;5023044;28;20041;-67
2023/01/14 09:00:56;;;;;;;5.93;2.10;;;7.90;95.70;;;;;;5030450;28;20033;-67
2023/01/14 09:03:22;;;;;;;4.72;2.10;;;7.90;95.70;;;;;;5031250;28;20407;-67
2023/01/14 09:05:47;;;;;;;3.90;1.60;;;7.90;95.70;;;;;;5030775;28;20037;-67
2023/01/14 09:19:20;;;;;;;3.90;1.55;;;8.10;95.80;;;;;;5030838;28;20056;-67
2023/01/14 09:21:46;;;;;;;3.13;1.73;;;8.10;95.90;;;;;;5029216;28;20482;-67
2023/01/14 09:24:13;;;;;;;4.15;1.85;;;8.10;96.00;;;;;;5030952;28;20034;-67
2023/01/14 09:26:39;;;;;;;6.20;2.20;;;8.10;96.00;;;;;;5030392;28;20447;-67
2023/01/14 09:29:04;;;;;;;2.92;1.60;;;8.20;96.00;;;;;;5030773;28;20415;-67
2023/01/14 09:31:30;;;;;;;4.45;1.60;;;8.20;96.00;;;;;;5029826;28;20101;-67
2023/01/14 09:33:55;;;;;;;4.97;1.70;;;8.20;96.00;;;;;;5030551;28;20056;-68
2023/01/14 09:36:21;;;;;;;2.38;1.30;;;8.20;96.00;;;;;;5030057;28;20022;-67
2023/01/14 09:38:47;;;;;;;4.32;1.70;;;8.30;96.10;;;;;;5030740;28;20022;-67
2023/01/14 09:41:26;;;;;;;4.07;1.30;;;8.30;96.10;;;;;;5029836;28;20040;-68
2023/01/14 09:43:53;;;;;;;8.70;1.67;;;8.30;96.20;;;;;;5029214;28;20030;-67
2023/01/14 09:46:23;;;;;;;2.30;1.38;;;8.30;96.20;;;;;;5029902;28;20117;-68
2023/01/14 09:48:48;;;;;;;4.03;1.63;;;8.30;96.30;;;;;;5029120;28;20033;-67
2023/01/14 09:51:53;;;;;;;5.45;1.58;;;8.30;96.30;;;;;;5028887;28;20021;-67
2023/01/14 09:54:36;;;;;;;3.05;1.27;;;8.30;96.40;;;;;;5014282;28;20025;-67
2023/01/14 09:57:20;;;;;;;2.90;1.50;;;8.40;96.40;;;;;;5028080;28;20387;-67
2023/01/14 10:00:11;;;;;;;3.95;1.50;;;8.40;96.40;;;;;;5028498;28;20029;-67
2023/01/14 10:02:52;;;;;;;2.95;1.20;;;8.40;96.40;;;;;;5031432;28;20105;-67
2023/01/14 10:05:28;;;;;;;1.58;1.10;;;8.50;96.40;;;;;;5025572;28;20546;-67
2023/01/14 10:08:02;;;;;;;1.85;1.10;;;8.60;96.30;;;;;;5027875;28;20044;-67
2023/01/14 10:10:35;;;;;;;4.00;1.10;;;8.60;96.30;;;;;;5028338;28;20079;-67
2023/01/14 10:13:05;;;;;;;3.38;1.42;;;8.60;96.30;;;;;;5027204;28;20508;-67
2023/01/14 10:15:44;;;;;;;2.45;1.70;;;8.60;96.20;;;;;;5026762;28;20032;-67
2023/01/14 10:18:51;;;;;;;2.58;1.20;;;8.60;96.20;;;;;;5028239;28;20022;-68
2023/01/14 10:21:25;;;;;;;2.35;1.10;;;8.70;96.20;;;;;;5028699;28;20037;-66
2023/01/14 10:23:50;;;;;;;3.85;1.10;;;8.60;96.30;;;;;;5023439;28;20385;-66
2023/01/14 10:26:18;;;;;;;1.83;1.15;;;8.60;96.40;;;;;;5027719;28;20132;-66
2023/01/14 10:28:48;;;;;;;1.77;1.10;;;8.70;96.40;;;;;;5028120;28;20030;-66
2023/01/14 10:31:28;;;;;;;2.50;1.00;;;8.70;96.40;;;;;;5027275;28;20036;-66
2023/01/14 10:33:54;;;;;;;2.58;1.33;;;8.70;96.40;;;;;;5027120;28;20120;-67
2023/01/14 10:36:23;;;;;;;4.97;1.48;;;8.70;96.40;;;;;;5028781;28;20025;-67
2023/01/14 10:38:50;;;;;;;7.82;2.03;;;8.70;96.30;;;;;;5043418;28;20029;-67
2023/01/14 10:41:48;;;;;;;1.15;1.05;;;8.80;96.30;;;;;;5029707;28;20133;-67
2023/01/14 10:44:03;;;;;;;2.00;1.20;;;8.80;96.30;;;;;;5029040;28;20306;-67
2023/01/14 10:46:29;;;;;;;2.97;1.40;;;8.80;96.40;;;;;;5023872;28;20017;-66
2023/01/14 10:49:04;;;;;;;2.50;1.40;;;8.80;96.40;;;;;;5029248;28;20116;-66
2023/01/14 10:51:38;;;;;;;4.72;1.20;;;8.80;96.50;;;;;;5028621;28;20021;-66
2023/01/14 10:54:12;;;;;;;4.60;1.50;;;8.80;96.50;;;;;;5028581;28;20100;-67
2023/01/14 10:56:41;;;;;;;3.85;1.40;;;8.80;96.60;;;;;;5015754;28;20057;-66
2023/01/14 10:59:26;;;;;;;3.35;1.40;;;8.90;96.70;;;;;;5028563;28;20104;-67
2023/01/14 11:01:53;;;;;;;4.70;1.40;;;8.90;96.70;;;;;;5028804;28;20041;-67
2023/01/14 11:04:22;;;;;;;7.90;2.67;;;8.90;96.70;;;;;;5028362;28;20105;-67
2023/01/14 11:06:48;;;;;;;8.10;3.45;;;9.00;97.00;;;;;;5029066;28;20508;-66
2023/01/14 11:09:27;;;;;;;15.73;6.18;;;9.00;96.70;;;;;;5029830;28;20045;-67
2023/01/14 11:11:53;;;;;;;9.75;3.97;;;9.00;96.70;;;;;;5029395;28;20075;-67
2023/01/14 11:14:28;;;;;;;10.32;4.47;;;9.10;96.70;;;;;;5030197;28;20052;-66
2023/01/14 11:16:53;;;;;;;6.75;3.22;;;9.10;96.70;;;;;;5032710;28;20060;-66
2023/01/14 11:19:21;;;;;;;6.15;3.00;;;9.10;96.80;;;;;;5032986;28;20501;-67
2023/01/14 11:21:53;;;;;;;3.58;1.67;;;9.20;96.90;;;;;;5033000;28;20032;-66
2023/01/14 11:24:31;;;;;;;10.57;3.75;;;9.20;96.90;;;;;;5032540;28;20022;-67
2023/01/14 11:27:02;;;;;;;5.47;2.50;;;9.20;97.00;;;;;;5031240;28;20105;-67
2023/01/14 11:29:31;;;;;;;7.73;4.17;;;9.20;97.00;;;;;;5029911;28;20017;-66
2023/01/14 11:32:03;;;;;;;11.77;5.30;;;9.30;97.20;;;;;;5025997;28;20029;-67
2023/01/14 11:34:29;;;;;;;18.38;10.73;;;9.30;97.00;;;;;;5022724;28;20032;-67
2023/01/14 11:37:09;;;;;;;7.63;4.00;;;9.30;96.90;;;;;;5026182;28;20100;-67
2023/01/14 11:39:37;;;;;;;5.30;3.40;;;9.30;96.90;;;;;;5028799;28;20032;-67
2023/01/14 11:42:21;;;;;;;8.18;3.05;;;9.40;96.90;;;;;;5025548;28;20041;-66
2023/01/14 11:45:11;;;;;;;12.65;5.63;;;9.40;97.00;;;;;;5031167;28;20368;-67
2023/01/14 11:47:56;;;;;;;4.70;2.53;;;9.40;97.00;;;;;;5028122;28;20029;-67
2023/01/14 11:50:34;;;;;;;10.00;5.18;;;9.40;97.10;;;;;;5027092;28;20488;-66
2023/01/14 11:53:00;;;;;;;7.43;4.32;;;9.40;97.20;;;;;;5031897;28;20033;-66
2023/01/14 11:55:28;;;;;;;3.45;2.28;;;9.50;97.20;;;;;;5030984;28;20022;-66
2023/01/14 11:57:59;;;;;;;7.43;3.17;;;9.50;97.30;;;;;;5031563;28;20026;-66
2023/01/14 12:00:25;;;;;;;9.23;3.92;;;9.50;97.40;;;;;;5032201;28;20124;-66
2023/01/14 12:02:59;;;;;;;14.18;7.03;;;9.50;97.50;;;;;;5029217;28;20519;-66
2023/01/14 12:05:25;;;;;;;13.30;8.05;;;9.50;97.60;;;;;;5030161;28;20057;-66
2023/01/14 12:07:52;;;;;;;12.05;7.60;;;9.60;97.70;;;;;;5029757;28;20034;-66
2023/01/14 12:10:20;;;;;;;2.97;2.20;;;9.60;97.60;;;;;;5029481;28;20122;-66
2023/01/14 12:19:29;;;;;;;4.50;2.90;;;9.70;97.50;;;;;;5032248;28;20079;-68
2023/01/14 12:22:24;;;;;;;5.80;3.30;;;9.80;97.60;;;;;;5028351;28;21211;-68
2023/01/14 12:25:10;;;;;;;9.32;5.57;;;9.80;97.60;;;;;;5028207;28;20035;-68
2023/01/14 12:27:42;;;;;;;3.03;2.08;;;9.80;97.60;;;;;;5026645;28;20444;-67
2023/01/14 12:30:37;;;;;;;4.00;1.67;;;9.80;97.50;;;;;;5029928;28;20458;-67
2023/01/14 12:33:02;;;;;;;4.38;2.00;;;9.90;97.60;;;;;;5017921;28;20084;-67
2023/01/14 12:35:39;;;;;;;5.32;3.40;;;9.90;97.80;;;;;;5029517;28;20056;-66
2023/01/14 12:46:39;;;;;;;5.57;3.85;;;10.00;97.50;;;;;;5026826;28;20400;-66
2023/01/14 12:49:05;;;;;;;11.70;7.25;;;9.90;97.50;;;;;;5029541;28;20030;-67
2023/01/14 12:51:33;;;;;;;3.42;2.42;;;9.90;97.60;;;;;;5029207;28;20018;-67
2023/01/14 12:54:02;;;;;;;3.92;2.13;;;10.00;97.60;;;;;;5028400;28;20590;-67
2023/01/14 12:56:38;;;;;;;9.73;6.43;;;10.00;97.60;;;;;;5029548;28;20021;-67
2023/01/14 12:59:18;;;;;;;3.58;1.55;;;10.00;97.60;;;;;;5029489;28;20129;-67
2023/01/14 13:01:57;;;;;;;2.10;1.70;;;10.00;97.70;;;;;;5028726;28;20025;-67
2023/01/14 13:04:37;;;;;;;5.57;2.20;;;10.00;97.70;;;;;;5027793;28;20108;-67
2023/01/14 13:07:05;;;;;;;9.90;5.45;;;10.10;97.60;;;;;;5026736;28;20031;-67
2023/01/14 13:09:47;;;;;;;2.60;1.60;;;10.10;97.60;;;;;;5029120;28;20036;-67
2023/01/14 13:12:33;;;;;;;4.63;3.45;;;10.00;97.60;;;;;;5028654;28;20499;-67
2023/01/14 13:15:02;;;;;;;5.25;3.95;;;10.10;97.70;;;;;;5028362;28;20168;-67
2023/01/14 13:17:35;;;;;;;4.18;3.13;;;10.10;97.60;;;;;;5023999;28;20357;-67
2023/01/14 13:20:06;;;;;;;3.28;2.10;;;10.10;97.50;;;;;;5028944;28;20427;-67
2023/01/14 13:22:51;;;;;;;1.83;1.52;;;10.20;97.50;;;;;;5028815;28;20021;-67
2023/01/14 13:25:34;;;;;;;1.20;1.10;;;10.20;97.50;;;;;;5027114;28;20496;-67
2023/01/14 13:28:23;;;;;;;2.50;1.52;;;10.20;97.50;;;;;;5030489;28;20040;-68
2023/01/14 13:30:49;;;;;;;1.98;1.10;;;10.20;97.60;;;;;;5025644;28;20068;-67
2023/01/14 13:33:27;;;;;;;1.35;0.98;;;10.20;97.60;;;;;;5027018;28;20087;-67
2023/01/14 13:36:14;;;;;;;1.52;0.80;;;10.20;97.60;;;;;;5022717;28;20124;-66
2023/01/14 13:39:06;;;;;;;1.42;1.10;;;10.10;97.70;;;;;;5024637;28;20022;-68
2023/01/14 13:41:43;;;;;;;1.38;1.25;;;10.20;97.70;;;;;;5025786;28;20103;-68
2023/01/14 13:44:25;;;;;;;9.65;4.80;;;10.20;97.70;;;;;;5025910;28;20017;-67
2023/01/14 13:47:04;;;;;;;19.42;11.77;;;10.20;97.80;;;;;;5020569;28;20099;-67
2023/01/14 13:49:41;;;;;;;10.52;6.10;;;10.30;97.80;;;;;;5026253;28;20534;-68
2023/01/14 13:52:21;;;;;;;4.45;2.85;;;10.30;97.80;;;;;;5023851;28;20030;-68
2023/01/14 13:55:03;;;;;;;2.45;1.63;;;10.30;97.80;;;;;;5021635;28;20087;-66
2023/01/14 13:57:36;;;;;;;1.25;1.15;;;10.30;97.80;;;;;;5024848;28;20028;-67